createdAt,value
2022-11-29T00:01:45.101Z,96.50
2022-11-29T00:04:14.130Z,96.40
2022-11-29T00:06:43.073Z,96.50
2022-11-29T00:09:14.552Z,96.50
2022-11-29T00:12:02.668Z,96.50
2022-11-29T00:14:31.685Z,96.30
2022-11-29T00:17:05.511Z,96.30
2022-11-29T00:19:36.377Z,96.20
2022-11-29T00:22:06.824Z,96.20
2022-11-29T00:24:35.859Z,96.00
2022-11-29T00:27:05.055Z,95.90
2022-11-29T00:29:33.982Z,95.90
2022-11-29T00:32:06.954Z,95.90
2022-11-29T00:34:35.869Z,95.80
2022-11-29T00:37:04.836Z,95.80
2022-11-29T00:39:33.961Z,95.90
2022-11-29T00:42:02.855Z,95.80
2022-11-29T00:44:31.679Z,95.80
2022-11-29T00:47:00.597Z,95.90
2022-11-29T00:49:29.437Z,95.70
2022-11-29T00:51:58.314Z,95.40
2022-11-29T00:54:27.410Z,95.40
2022-11-29T00:56:56.496Z,95.20
2022-11-29T00:59:25.483Z,95.30
2022-11-29T01:01:54.358Z,95.20
2022-11-29T01:04:23.590Z,95.30
2022-11-29T01:06:53.948Z,95.00
2022-11-29T01:09:22.958Z,94.90
2022-11-29T01:11:52.130Z,95.10
2022-11-29T01:14:20.973Z,94.60
2022-11-29T01:16:49.943Z,94.30
2022-11-29T01:19:18.974Z,94.20
2022-11-29T01:21:47.864Z,94.00
2022-11-29T01:24:16.796Z,93.80
2022-11-29T01:26:45.712Z,93.70
2022-11-29T01:29:15.147Z,93.50
2022-11-29T01:31:44.123Z,93.40
2022-11-29T01:34:13.158Z,93.20
2022-11-29T01:36:42.006Z,93.10
2022-11-29T01:39:12.097Z,93.00
2022-11-29T01:41:41.048Z,92.80
2022-11-29T01:44:13.128Z,92.60
2022-11-29T01:46:44.530Z,92.40
2022-11-29T01:49:24.695Z,92.10
2022-11-29T01:52:12.115Z,92.10
2022-11-29T01:54:45.384Z,91.80
2022-11-29T01:57:14.980Z,91.70
2022-11-29T01:59:47.323Z,91.40
2022-11-29T02:02:23.675Z,91.20
2022-11-29T02:04:53.145Z,91.00
2022-11-29T02:07:22.043Z,90.80
2022-11-29T02:09:51.059Z,90.60
2022-11-29T02:12:25.945Z,90.30
2022-11-29T02:15:18.510Z,90.10
2022-11-29T02:17:59.641Z,89.50
2022-11-29T02:21:16.429Z,89.50
2022-11-29T02:24:22.083Z,87.70
2022-11-29T02:27:01.573Z,88.70
2022-11-29T02:29:30.743Z,87.70
2022-11-29T02:32:21.183Z,88.10
2022-11-29T02:35:11.295Z,88.00
2022-11-29T02:38:07.727Z,87.20
2022-11-29T02:40:56.691Z,86.50
2022-11-29T02:43:53.229Z,86.50
2022-11-29T02:46:43.930Z,85.30
2022-11-29T02:49:24.878Z,84.80
2022-11-29T02:52:03.076Z,84.40
2022-11-29T02:54:47.468Z,84.90
2022-11-29T02:57:42.678Z,83.30
2022-11-29T03:00:23.187Z,84.20
2022-11-29T03:02:58.000Z,81.80
2022-11-29T03:05:49.598Z,83.30
2022-11-29T03:08:49.330Z,82.00
2022-11-29T03:11:49.659Z,80.60
2022-11-29T03:14:29.944Z,80.40
2022-11-29T03:17:29.205Z,81.70
2022-11-29T03:20:04.933Z,79.70
2022-11-29T03:23:03.563Z,82.20
2022-11-29T03:26:00.711Z,81.30
2022-11-29T03:28:53.111Z,81.40
2022-11-29T03:31:28.729Z,80.20
2022-11-29T03:34:18.977Z,81.40
2022-11-29T03:36:54.149Z,78.30
2022-11-29T03:39:44.683Z,80.00
2022-11-29T03:42:21.003Z,79.20
2022-11-29T03:45:10.405Z,80.10
2022-11-29T03:48:07.039Z,79.10
2022-11-29T03:50:44.069Z,79.90
2022-11-29T03:53:24.446Z,79.60
2022-11-29T03:55:58.458Z,79.50
2022-11-29T03:58:44.594Z,80.10
2022-11-29T04:01:46.900Z,78.40
2022-11-29T04:04:43.864Z,78.00
2022-11-29T04:07:22.120Z,79.00
2022-11-29T04:10:28.315Z,78.90
2022-11-29T04:13:27.420Z,77.90
2022-11-29T04:16:23.944Z,78.40
2022-11-29T04:19:11.897Z,76.30
2022-11-29T04:22:17.550Z,79.10
2022-11-29T04:25:01.221Z,77.80
2022-11-29T04:27:42.688Z,78.60
2022-11-29T04:30:27.240Z,73.50
2022-11-29T04:33:34.619Z,78.30
2022-11-29T04:36:44.610Z,76.70
2022-11-29T04:39:33.787Z,76.00
2022-11-29T04:42:36.758Z,77.50
2022-11-29T04:45:23.908Z,75.00
2022-11-29T04:48:34.206Z,76.40
2022-11-29T04:51:46.419Z,76.50
2022-11-29T04:55:01.400Z,75.50
2022-11-29T04:57:48.971Z,73.90
2022-11-29T05:00:22.089Z,76.60
2022-11-29T05:02:58.457Z,75.30
2022-11-29T05:05:41.644Z,76.30
2022-11-29T05:08:18.670Z,77.10
2022-11-29T05:11:08.885Z,75.20
2022-11-29T05:14:03.636Z,75.30
2022-11-29T05:16:44.790Z,76.40
2022-11-29T05:19:38.071Z,77.40
2022-11-29T05:22:13.118Z,75.60
2022-11-29T05:24:48.293Z,76.90
2022-11-29T05:27:48.088Z,77.10
2022-11-29T05:30:18.401Z,76.70
2022-11-29T05:32:50.067Z,77.40
2022-11-29T05:35:31.171Z,77.20
2022-11-29T05:38:10.701Z,76.20
2022-11-29T05:40:50.008Z,75.70
2022-11-29T05:43:51.060Z,74.30
2022-11-29T05:46:35.512Z,70.80
2022-11-29T05:49:20.419Z,73.70
2022-11-29T05:52:11.061Z,73.60
2022-11-29T05:55:04.421Z,75.30
2022-11-29T05:57:51.725Z,75.20
2022-11-29T06:00:21.603Z,75.60
2022-11-29T06:03:24.126Z,76.80
2022-11-29T06:06:00.146Z,76.50
2022-11-29T06:08:42.297Z,76.60
2022-11-29T06:11:29.514Z,76.50
2022-11-29T06:14:09.058Z,76.30
2022-11-29T06:16:59.159Z,76.90
2022-11-29T06:19:58.599Z,77.00
2022-11-29T06:22:36.759Z,75.70
2022-11-29T06:25:22.077Z,76.10
2022-11-29T06:28:27.231Z,76.40
2022-11-29T06:31:14.354Z,76.30
2022-11-29T06:33:57.885Z,77.00
2022-11-29T06:36:42.344Z,77.10
2022-11-29T06:39:12.078Z,77.10
2022-11-29T06:41:41.165Z,77.30
2022-11-29T06:44:11.218Z,77.50
2022-11-29T06:46:48.726Z,77.30
2022-11-29T06:49:34.051Z,77.40
2022-11-29T06:52:20.991Z,77.20
2022-11-29T06:54:58.135Z,76.80
2022-11-29T06:57:53.748Z,76.90
2022-11-29T07:00:28.141Z,77.00
2022-11-29T07:03:34.289Z,76.90
2022-11-29T07:06:12.939Z,75.70
2022-11-29T07:08:41.968Z,75.90
2022-11-29T07:11:15.292Z,75.60
2022-11-29T07:13:44.628Z,76.00
2022-11-29T07:16:26.172Z,75.80
2022-11-29T07:19:13.721Z,75.80
2022-11-29T07:22:07.078Z,75.30
2022-11-29T07:24:54.344Z,74.30
2022-11-29T07:27:51.923Z,74.10
2022-11-29T07:30:58.957Z,74.90
2022-11-29T07:33:36.777Z,72.30
2022-11-29T07:36:23.522Z,74.20
2022-11-29T07:39:13.876Z,74.60
2022-11-29T07:42:24.329Z,73.10
2022-11-29T07:45:15.186Z,74.20
2022-11-29T07:47:47.384Z,74.30
2022-11-29T07:50:16.718Z,74.30
2022-11-29T07:52:46.138Z,74.40
2022-11-29T07:55:20.800Z,74.10
2022-11-29T07:57:50.702Z,74.30
2022-11-29T08:00:21.003Z,73.60
2022-11-29T08:02:51.253Z,73.40
2022-11-29T08:05:20.500Z,73.30
2022-11-29T08:07:49.597Z,73.30
2022-11-29T08:10:21.712Z,73.10
2022-11-29T08:12:53.051Z,73.50
2022-11-29T08:15:26.560Z,73.30
2022-11-29T08:17:55.509Z,72.60
2022-11-29T08:20:24.504Z,72.10
2022-11-29T08:23:01.152Z,72.80
2022-11-29T08:25:30.244Z,72.90
2022-11-29T08:27:59.177Z,73.00
2022-11-29T08:30:28.069Z,72.70
2022-11-29T08:32:57.065Z,72.30
2022-11-29T08:35:26.928Z,71.60
2022-11-29T08:37:56.594Z,71.70
2022-11-29T08:40:25.678Z,71.50
2022-11-29T08:42:59.709Z,71.50
2022-11-29T08:45:28.732Z,69.00
2022-11-29T08:47:57.749Z,71.40
2022-11-29T08:50:26.849Z,70.90
2022-11-29T08:53:14.048Z,70.00
2022-11-29T08:55:43.971Z,70.50
2022-11-29T08:58:15.608Z,70.60
2022-11-29T09:00:47.966Z,70.60
2022-11-29T09:03:34.825Z,71.20
2022-11-29T09:06:16.112Z,71.60
2022-11-29T09:08:46.171Z,71.10
2022-11-29T09:11:20.984Z,72.10
2022-11-29T09:13:54.187Z,71.90
2022-11-29T09:16:26.507Z,71.80
2022-11-29T09:18:57.098Z,71.50
2022-11-29T09:21:27.636Z,71.10
2022-11-29T09:24:00.332Z,70.90
2022-11-29T09:26:32.271Z,71.10
2022-11-29T09:29:02.575Z,71.70
2022-11-29T09:31:33.063Z,71.10
2022-11-29T09:34:02.465Z,72.30
2022-11-29T09:36:32.603Z,71.70
2022-11-29T09:39:03.997Z,71.60
2022-11-29T09:41:48.343Z,71.70
2022-11-29T09:44:42.186Z,71.60
2022-11-29T09:47:29.506Z,70.30
2022-11-29T09:50:36.142Z,71.00
2022-11-29T09:53:27.731Z,71.30
2022-11-29T09:56:41.658Z,70.90
2022-11-29T09:59:26.038Z,71.00
2022-11-29T10:02:07.412Z,72.00
2022-11-29T10:04:42.667Z,72.00
2022-11-29T10:07:36.038Z,72.20
2022-11-29T10:10:47.743Z,71.60
2022-11-29T10:13:24.372Z,71.70
2022-11-29T10:16:13.559Z,72.50
2022-11-29T10:19:05.066Z,72.80
2022-11-29T10:21:40.434Z,72.90
2022-11-29T10:24:18.923Z,72.80
2022-11-29T10:26:48.770Z,73.00
2022-11-29T10:29:18.787Z,73.00
2022-11-29T10:31:50.518Z,73.20
2022-11-29T10:34:22.451Z,73.20
2022-11-29T10:37:02.475Z,73.30
2022-11-29T10:39:50.805Z,73.50
2022-11-29T10:42:46.690Z,73.60
2022-11-29T10:45:57.087Z,73.70
2022-11-29T10:48:35.076Z,73.70
2022-11-29T10:51:04.540Z,74.90
2022-11-29T10:53:38.191Z,74.40
2022-11-29T10:56:36.558Z,74.70
2022-11-29T10:59:10.092Z,74.60
2022-11-29T11:01:45.979Z,74.80
2022-11-29T11:04:44.468Z,74.70
2022-11-29T11:07:37.406Z,74.80
2022-11-29T11:10:30.332Z,74.90
2022-11-29T11:13:22.838Z,74.90
2022-11-29T11:15:57.056Z,75.00
2022-11-29T11:18:31.989Z,75.40
2022-11-29T11:21:05.839Z,75.40
2022-11-29T11:23:42.615Z,75.60
2022-11-29T11:26:14.563Z,75.70
2022-11-29T11:29:01.853Z,75.80
2022-11-29T11:31:40.738Z,75.80
2022-11-29T11:34:38.772Z,76.00
2022-11-29T11:37:16.897Z,76.60
2022-11-29T11:39:47.491Z,76.50
2022-11-29T11:42:40.644Z,76.30
2022-11-29T11:45:12.688Z,76.50
2022-11-29T11:47:48.436Z,76.70
2022-11-29T11:50:34.036Z,77.00
2022-11-29T11:53:19.420Z,76.90
2022-11-29T11:56:00.654Z,76.90
2022-11-29T11:58:34.464Z,77.00
2022-11-29T12:01:26.306Z,77.00
2022-11-29T12:04:07.348Z,76.90
2022-11-29T12:06:53.392Z,77.10
2022-11-29T12:09:35.712Z,77.00
2022-11-29T12:12:22.900Z,77.00
2022-11-29T12:15:04.595Z,77.20
2022-11-29T12:17:51.697Z,77.80
2022-11-29T12:20:35.870Z,77.20
2022-11-29T12:23:13.913Z,77.50
2022-11-29T12:26:19.237Z,77.60
2022-11-29T12:29:01.796Z,78.40
2022-11-29T12:31:42.917Z,77.90
2022-11-29T12:34:48.756Z,78.00
2022-11-29T12:37:44.952Z,78.60
2022-11-29T12:40:39.698Z,78.80
2022-11-29T12:43:43.839Z,79.40
2022-11-29T12:46:29.244Z,79.30
2022-11-29T12:49:16.417Z,79.50
2022-11-29T12:52:15.855Z,79.40
2022-11-29T12:55:24.629Z,79.60
2022-11-29T12:58:10.791Z,79.20
2022-11-29T13:00:51.995Z,79.40
2022-11-29T13:03:54.708Z,79.30
2022-11-29T13:06:33.213Z,80.30
2022-11-29T13:09:20.305Z,79.60
2022-11-29T13:11:59.733Z,79.90
2022-11-29T13:14:56.724Z,79.90
2022-11-29T13:17:36.035Z,80.30
2022-11-29T13:20:37.254Z,80.20
2022-11-29T13:23:45.925Z,80.80
2022-11-29T13:26:22.051Z,80.50
2022-11-29T13:28:51.815Z,80.70
2022-11-29T13:31:24.108Z,80.90
2022-11-29T13:34:08.838Z,81.00
2022-11-29T13:36:51.958Z,81.50
2022-11-29T13:39:29.931Z,81.50
2022-11-29T13:42:22.294Z,81.50
2022-11-29T13:45:04.498Z,81.70
2022-11-29T13:47:33.475Z,81.60
2022-11-29T13:50:26.706Z,81.60
2022-11-29T13:53:24.633Z,81.50
2022-11-29T13:56:02.321Z,81.90
2022-11-29T13:58:38.503Z,81.90
2022-11-29T14:01:12.969Z,82.00
2022-11-29T14:03:50.075Z,82.00
2022-11-29T14:06:33.729Z,82.20
2022-11-29T14:09:23.553Z,82.40
2022-11-29T14:12:20.129Z,83.00
2022-11-29T14:15:32.515Z,83.10
2022-11-29T14:18:04.465Z,83.50
2022-11-29T14:20:33.679Z,83.30
2022-11-29T14:30:08.780Z,84.00
2022-11-29T14:39:28.400Z,84.20
2022-11-29T14:45:42.217Z,85.10
2022-11-29T14:48:34.314Z,85.10
2022-11-29T14:51:21.849Z,85.30
2022-11-29T14:54:15.117Z,85.30
2022-11-29T14:56:47.507Z,85.40
2022-11-29T14:59:48.777Z,85.50
2022-11-29T15:02:28.512Z,85.20
2022-11-29T15:05:20.872Z,84.80
2022-11-29T15:08:32.664Z,84.70
2022-11-29T15:11:14.535Z,85.00
2022-11-29T15:14:15.608Z,84.90
2022-11-29T15:17:03.966Z,85.60
2022-11-29T15:20:05.878Z,85.40
2022-11-29T15:23:02.509Z,85.80
2022-11-29T15:25:38.120Z,86.10
2022-11-29T15:28:09.347Z,85.60
2022-11-29T15:30:41.991Z,85.90
2022-11-29T15:33:28.303Z,85.80
2022-11-29T15:36:07.260Z,87.30
2022-11-29T15:38:54.799Z,86.00
2022-11-29T15:41:33.433Z,86.90
2022-11-29T15:44:09.681Z,86.30
2022-11-29T15:46:39.900Z,86.40
2022-11-29T15:49:30.317Z,86.50
2022-11-29T15:52:07.194Z,86.60
2022-11-29T15:54:47.362Z,87.10
2022-11-29T15:57:37.962Z,86.90
2022-11-29T16:00:13.953Z,87.60
2022-11-29T16:02:53.123Z,86.90
2022-11-29T16:05:28.762Z,87.00
2022-11-29T16:08:09.229Z,87.00
2022-11-29T16:10:51.842Z,87.00
2022-11-29T16:13:40.901Z,87.10
2022-11-29T16:16:23.654Z,87.70
2022-11-29T16:18:56.982Z,87.30
2022-11-29T16:21:33.206Z,87.50
2022-11-29T16:24:16.775Z,87.70
2022-11-29T16:26:50.016Z,88.00
2022-11-29T16:29:35.066Z,87.80
2022-11-29T16:32:40.424Z,88.30
2022-11-29T16:35:21.156Z,88.60
2022-11-29T16:37:51.976Z,87.90
2022-11-29T16:40:34.330Z,87.80
2022-11-29T16:43:13.463Z,87.90
2022-11-29T16:45:45.236Z,87.90
2022-11-29T16:48:41.904Z,87.90
2022-11-29T16:51:15.310Z,88.60
2022-11-29T16:53:58.019Z,88.20
2022-11-29T16:56:31.135Z,88.40
2022-11-29T16:59:16.928Z,88.30
2022-11-29T17:01:56.781Z,88.60
2022-11-29T17:04:28.327Z,90.30
2022-11-29T17:06:59.501Z,89.00
2022-11-29T17:09:34.305Z,88.90
2022-11-29T17:12:05.430Z,88.80
2022-11-29T17:14:37.056Z,88.80
2022-11-29T17:17:10.541Z,88.80
2022-11-29T17:19:40.884Z,88.80
2022-11-29T17:22:11.623Z,89.80
2022-11-29T17:24:47.994Z,88.80
2022-11-29T17:27:26.161Z,88.90
2022-11-29T17:29:56.235Z,88.80
2022-11-29T17:32:28.800Z,89.70
2022-11-29T17:35:01.197Z,89.40
2022-11-29T17:37:32.617Z,89.00
2022-11-29T17:40:04.099Z,89.20
2022-11-29T17:42:38.419Z,89.20
2022-11-29T17:45:09.982Z,89.10
2022-11-29T17:47:40.065Z,89.20
2022-11-29T17:50:10.516Z,89.20
2022-11-29T17:52:44.577Z,89.10
2022-11-29T17:55:17.028Z,89.20
2022-11-29T17:57:50.604Z,89.30
2022-11-29T18:00:21.368Z,89.30
2022-11-29T18:02:51.520Z,89.40
2022-11-29T18:05:22.571Z,89.60
2022-11-29T18:08:01.641Z,89.70
2022-11-29T18:10:31.993Z,89.90
2022-11-29T18:13:03.123Z,89.90
2022-11-29T18:15:35.258Z,90.00
2022-11-29T18:18:07.002Z,89.80
2022-11-29T18:20:37.062Z,89.90
2022-11-29T18:23:10.044Z,89.90
2022-11-29T18:25:40.167Z,90.00
2022-11-29T18:28:12.834Z,90.00
2022-11-29T18:30:43.104Z,90.00
2022-11-29T18:33:13.201Z,90.00
2022-11-29T18:35:43.246Z,90.10
2022-11-29T18:38:16.155Z,90.10
2022-11-29T18:40:49.313Z,90.10
2022-11-29T18:43:20.012Z,90.10
2022-11-29T18:45:50.323Z,90.10
2022-11-29T18:48:20.773Z,90.10
2022-11-29T18:50:50.770Z,90.20
2022-11-29T18:53:20.698Z,90.30
2022-11-29T18:55:50.563Z,90.30
2022-11-29T18:58:20.392Z,90.30
2022-11-29T19:00:50.362Z,90.40
2022-11-29T19:03:20.475Z,90.30
2022-11-29T19:05:56.798Z,90.40
2022-11-29T19:08:27.272Z,90.60
2022-11-29T19:10:57.331Z,90.60
2022-11-29T19:13:27.763Z,90.60
2022-11-29T19:15:58.109Z,90.70
2022-11-29T19:18:28.364Z,90.60
2022-11-29T19:21:09.139Z,90.80
2022-11-29T19:23:39.134Z,90.80
2022-11-29T19:26:11.520Z,90.70
2022-11-29T19:28:46.838Z,90.70
2022-11-29T19:31:18.425Z,90.80
2022-11-29T19:33:49.659Z,90.90
2022-11-29T19:36:24.218Z,90.90
2022-11-29T19:38:54.787Z,91.00
2022-11-29T19:41:34.356Z,91.10
2022-11-29T19:44:10.109Z,91.10
2022-11-29T19:46:41.960Z,91.10
2022-11-29T19:49:11.652Z,91.40
2022-11-29T19:51:40.926Z,91.60
2022-11-29T19:54:11.637Z,91.80
2022-11-29T19:56:41.079Z,92.20
2022-11-29T19:59:10.726Z,92.30
2022-11-29T20:01:41.749Z,92.20
2022-11-29T20:04:13.962Z,92.00
2022-11-29T20:06:43.368Z,92.00
2022-11-29T20:09:14.870Z,92.10
2022-11-29T20:11:44.017Z,92.00
2022-11-29T20:14:15.575Z,92.30
2022-11-29T20:16:44.683Z,92.10
2022-11-29T20:19:17.059Z,92.20
2022-11-29T20:21:50.389Z,92.20
2022-11-29T20:24:20.585Z,92.60
2022-11-29T20:26:50.817Z,92.80
2022-11-29T20:29:21.219Z,93.30
2022-11-29T20:31:51.216Z,93.40
2022-11-29T20:34:22.090Z,93.20
2022-11-29T20:37:00.289Z,92.90
2022-11-29T20:39:35.183Z,93.00
2022-11-29T20:42:38.080Z,93.60
2022-11-29T20:45:10.510Z,94.00
2022-11-29T20:47:53.121Z,93.50
2022-11-29T20:50:27.271Z,94.00
2022-11-29T20:53:14.527Z,93.40
2022-11-29T20:55:47.943Z,93.10
2022-11-29T20:58:17.675Z,92.60
2022-11-29T21:00:46.758Z,92.70
2022-11-29T21:03:20.450Z,92.70
2022-11-29T21:05:50.739Z,92.60
2022-11-29T21:08:22.994Z,92.70
2022-11-29T21:10:53.394Z,92.60
2022-11-29T21:13:24.405Z,92.60
2022-11-29T21:15:53.743Z,92.90
2022-11-29T21:18:30.596Z,92.70
2022-11-29T21:21:11.702Z,92.90
2022-11-29T21:23:58.947Z,92.90
2022-11-29T21:26:42.211Z,92.90
2022-11-29T21:29:18.475Z,92.90
2022-11-29T21:31:48.937Z,93.00
2022-11-29T21:34:17.877Z,92.80
2022-11-29T21:36:50.316Z,93.00
2022-11-29T21:39:19.306Z,93.00
2022-11-29T21:41:48.240Z,92.90
2022-11-29T21:44:17.300Z,92.80
2022-11-29T21:46:46.244Z,92.80
2022-11-29T21:49:15.225Z,92.80
2022-11-29T21:51:44.188Z,92.80
2022-11-29T21:54:13.083Z,92.70
2022-11-29T21:56:42.045Z,92.60
2022-11-29T21:59:10.923Z,92.60
2022-11-29T22:01:39.902Z,92.60
2022-11-29T22:04:08.954Z,92.80
2022-11-29T22:06:38.000Z,92.70
2022-11-29T22:09:08.762Z,92.90
2022-11-29T22:11:37.752Z,93.10
2022-11-29T22:14:15.082Z,93.20
2022-11-29T22:17:01.752Z,93.10
2022-11-29T22:19:35.819Z,93.20
2022-11-29T22:22:06.929Z,93.10
2022-11-29T22:24:37.985Z,93.00
2022-11-29T22:27:06.993Z,92.90
2022-11-29T22:29:35.902Z,93.00
2022-11-29T22:32:04.930Z,93.10
2022-11-29T22:34:33.830Z,93.10
2022-11-29T22:37:02.751Z,93.10
2022-11-29T22:39:31.637Z,93.20
2022-11-29T22:42:00.499Z,93.30
2022-11-29T22:44:29.637Z,93.40
2022-11-29T22:46:58.569Z,93.40
2022-11-29T22:49:27.513Z,93.50
2022-11-29T22:51:56.464Z,93.60
2022-11-29T22:54:25.349Z,93.60
2022-11-29T22:56:54.340Z,93.70
2022-11-29T22:59:23.205Z,93.70
2022-11-29T23:01:52.127Z,93.80
2022-11-29T23:04:21.056Z,94.10
2022-11-29T23:06:49.982Z,94.20
2022-11-29T23:09:23.174Z,94.50
2022-11-29T23:11:54.713Z,94.80
2022-11-29T23:14:24.967Z,95.00
2022-11-29T23:16:54.062Z,94.90
2022-11-29T23:19:23.189Z,95.00
2022-11-29T23:21:57.343Z,94.90
2022-11-29T23:24:26.370Z,94.70
2022-11-29T23:26:55.241Z,94.80
2022-11-29T23:29:24.152Z,94.80
2022-11-29T23:31:53.144Z,94.80
2022-11-29T23:34:22.091Z,94.80
2022-11-29T23:36:53.093Z,94.80
2022-11-29T23:39:22.384Z,94.80
2022-11-29T23:41:51.405Z,94.90
2022-11-29T23:44:20.380Z,94.80
2022-11-29T23:46:49.228Z,94.80
2022-11-29T23:49:18.142Z,94.90
2022-11-29T23:51:46.980Z,94.70
2022-11-29T23:54:15.909Z,94.90
2022-11-29T23:56:44.857Z,95.10
2022-11-29T23:59:13.847Z,94.70
